Home > Products > Valid Products > TAF

000
FTUS41 KPHI 021032 AAB
TAFILG
TAF AMD
KILG 021032Z 0211/0306 VRB03KT 5SM BR FEW050
      TEMPO 0211/0212 1SM BR
     FM021500 21007KT P6SM SCT050
     FM022200 27004KT P6SM FEW250=



000
FTUS41 KPHI 021026 AAB
TAFACY
TAF AMD
KACY 021026Z 0210/0306 VRB04KT 2SM BR FEW250
      TEMPO 0210/0212 1/4SM FG
     FM021300 12006KT P6SM SCT050
     FM021600 16008KT P6SM SCT250
     FM030300 VRB03KT 5SM BR FEW070=



000
FTUS41 KPHI 021013 AAB
TAFPNE
TAF AMD
KPNE 021013Z 0210/0306 VRB03KT 5SM BR FEW060
      TEMPO 0210/0213 1/4SM FG BKN002
     FM021400 21006KT P6SM FEW050
     FM022100 14005KT P6SM SCT250=



000
FTUS41 KPHI 021001 AAB
TAFTTN
TAF AMD
KTTN 021001Z 0210/0306 VRB03KT P6SM FEW050
      TEMPO 0210/0212 1/4SM FG BKN001
     FM021400 20005KT P6SM FEW050
     FM022200 15004KT P6SM SCT250=



000
FTUS41 KPHI 020917 AAA
TAFMIV
TAF AMD
KMIV 020917Z 0209/0306 VRB02KT 1SM BR FEW250
      TEMPO 0209/0213 1/4SM FG VV002
     FM021400 20005KT P6SM FEW050
     FM022100 14005KT P6SM SCT050
     FM030300 VRB02KT 5SM BR FEW070=



000
FTUS41 KPHI 020915 AAA
TAFTTN
TAF AMD
KTTN 020915Z 0209/0306 VRB03KT P6SM FEW050
      TEMPO 0209/0213 3SM BR BKN002
     FM021400 20005KT P6SM FEW050
     FM022200 15004KT P6SM SCT250=



000
FTUS41 KPHI 020915 AAA
TAFTTN
TAF AMD
KTTN 020915Z 0209/0306 VRB03KT P6SM FEW050
      TEMPO 0209/0213 3SM BR BKN002
     FM021400 20005KT P6SM FEW050
     FM022200 15004KT P6SM SCT250=



000
FTUS41 KPHI 020914 AAA
TAFPNE
TAF AMD
KPNE 020914Z 0209/0306 VRB03KT 5SM BR FEW060
      TEMPO 0209/0213 2SM BR BKN003
     FM021400 21006KT P6SM FEW050
     FM022100 14005KT P6SM SCT250=



000
FTUS41 KPHI 020833 AAA
TAFPHL
TAF AMD
KPHL 020833Z 0209/0312 VRB03KT 5SM BR FEW200
      TEMPO 0210/0212 2SM BR
     FM021400 25007KT P6SM SCT050
     FM022200 14005KT P6SM SCT250
     FM030200 22005KT P6SM FEW250=



000
FTUS41 KPHI 020801 AAA
TAFRDG
TAF AMD
KRDG 020801Z 0208/0306 VRB03KT P6SM SCT250
      TEMPO 0208/0212 3SM BR
     FM021300 27005KT P6SM FEW050=



000
FTUS41 KPHI 020801 AAA
TAFRDG
TAF AMD
KRDG 020801Z 0208/0306 VRB03KT P6SM SCT250
      TEMPO 0208/0212 3SM BR
     FM021300 27005KT P6SM FEW050=



000
FTUS41 KPHI 020755 AAA
TAFABE
TAF AMD
KABE 020755Z 0208/0306 VRB03KT P6SM SCT250
      TEMPO 0208/0212 3SM BR
     FM021400 27005KT P6SM FEW050=



000
FTUS41 KPHI 020755 AAA
TAFABE
TAF AMD
KABE 020755Z 0208/0306 VRB03KT P6SM SCT250
      TEMPO 0208/0212 3SM BR
     FM021400 27005KT P6SM FEW050=



000
FTUS41 KPHI 020733 AAA
TAFACY
TAF AMD
KACY 020733Z 0208/0306 VRB04KT 2SM BR FEW250
      TEMPO 0208/0211 1/4SM FG
     FM021300 12006KT P6SM SCT050
     FM021600 16008KT P6SM SCT250
     FM030300 VRB03KT 5SM BR FEW070
      AMD NOT SKED=



000
FTUS41 KPHI 020733 AAA
TAFACY
TAF AMD
KACY 020733Z 0208/0306 VRB04KT 2SM BR FEW250
      TEMPO 0208/0211 1/4SM FG
     FM021300 12006KT P6SM SCT050
     FM021600 16008KT P6SM SCT250
     FM030300 VRB03KT 5SM BR FEW070
      AMD NOT SKED=



000
FTUS41 KPHI 020635 AAA
TAFILG
TAF AMD
KILG 020635Z 0207/0306 VRB03KT 5SM BR FEW050
      TEMPO 0207/0211 2SM BR
     FM021500 21007KT P6SM SCT050
     FM022200 27004KT P6SM FEW250=



000
FTUS41 KPHI 020635 AAA
TAFILG
TAF AMD
KILG 020635Z 0207/0306 VRB03KT 5SM BR FEW050
      TEMPO 0207/0211 2SM BR
     FM021500 21007KT P6SM SCT050
     FM022200 27004KT P6SM FEW250=



000
FTUS41 KPHI 020534 CCA
TAFMIV
TAF COR
KMIV 020534Z 0206/0306 VRB02KT 2SM BR FEW250
      TEMPO 0206/0210 1/2SM FG
     FM021300 20005KT P6SM FEW050
     FM022100 14005KT P6SM SCT050
     FM030300 VRB02KT 5SM BR FEW070=



000
FTUS41 KPHI 020534 CCA
TAFMIV
TAF COR
KMIV 020534Z 0206/0306 VRB02KT 2SM BR FEW250
      TEMPO 0206/0210 1/2SM FG
     FM021300 20005KT P6SM FEW050
     FM022100 14005KT P6SM SCT050
     FM030300 VRB02KT 5SM BR FEW070=



000
FTUS41 KPHI 020520
TAFTTN
TAF
KTTN 020520Z 0206/0306 VRB03KT P6SM FEW050
      TEMPO 0208/0212 3SM BR
     FM021400 20005KT P6SM FEW050
     FM022200 15004KT P6SM SCT250=



000
FTUS41 KPHI 020520
TAFMIV
TAF
KMIV 020520Z 0206/0306 VRB02KT 3SM BR FEW250
      TEMPO 0208/0212 1SM BR
     FM021400 20005KT P6SM FEW050
     FM022100 14005KT P6SM SCT050
     FM030300 VRB02KT 5SM BR FEW070=



000
FTUS41 KPHI 020520
TAFABE
TAF
KABE 020520Z 0206/0306 VRB03KT P6SM SCT250
      TEMPO 0209/0212 3SM BR
     FM021400 27005KT P6SM FEW050=



000
FTUS41 KPHI 020520
TAFPNE
TAF
KPNE 020520Z 0206/0306 VRB03KT 5SM BR FEW060
      TEMPO 0209/0212 2SM BR
     FM021400 21006KT P6SM FEW050
     FM022100 14005KT P6SM SCT250=



000
FTUS41 KPHI 020520
TAFRDG
TAF
KRDG 020520Z 0206/0306 VRB03KT P6SM SCT250
      TEMPO 0209/0212 3SM BR
     FM021300 27005KT P6SM FEW050=



000
FTUS41 KPHI 020520
TAFMIV
TAF
KMIV 020520Z 0206/0306 VRB02KT 3SM BR FEW250
      TEMPO 0208/0212 1SM BR
     FM021400 20005KT P6SM FEW050
     FM022100 14005KT P6SM SCT050
     FM030300 VRB02KT 5SM BR FEW070=



000
FTUS41 KPHI 020520
TAFPNE
TAF
KPNE 020520Z 0206/0306 VRB03KT 5SM BR FEW060
      TEMPO 0209/0212 2SM BR
     FM021400 21006KT P6SM FEW050
     FM022100 14005KT P6SM SCT250=



000
FTUS41 KPHI 020520
TAFACY
TAF
KACY 020520Z 0206/0306 VRB04KT 3SM BR FEW250
      TEMPO 0206/0210 1SM BR
     FM021000 VRB03KT 2SM BR SCT250
     FM021300 12006KT P6SM SCT050
     FM021600 16008KT P6SM SCT250
     FM030300 VRB03KT 5SM BR FEW070=



000
FTUS41 KPHI 020520
TAFILG
TAF
KILG 020520Z 0206/0306 VRB03KT 5SM BR FEW050
      TEMPO 0209/0212 2SM BR
     FM021500 21007KT P6SM SCT050
     FM022200 27004KT P6SM FEW250=



000
FTUS41 KPHI 020520
TAFILG
TAF
KILG 020520Z 0206/0306 VRB03KT 5SM BR FEW050
      TEMPO 0209/0212 2SM BR
     FM021500 21007KT P6SM SCT050
     FM022200 27004KT P6SM FEW250=



000
FTUS41 KPHI 020520
TAFABE
TAF
KABE 020520Z 0206/0306 VRB03KT P6SM SCT250
      TEMPO 0209/0212 3SM BR
     FM021400 27005KT P6SM FEW050=



000
FTUS41 KPHI 020520
TAFTTN
TAF
KTTN 020520Z 0206/0306 VRB03KT P6SM FEW050
      TEMPO 0208/0212 3SM BR
     FM021400 20005KT P6SM FEW050
     FM022200 15004KT P6SM SCT250=



000
FTUS41 KPHI 020520
TAFACY
TAF
KACY 020520Z 0206/0306 VRB04KT 3SM BR FEW250
      TEMPO 0206/0210 1SM BR
     FM021000 VRB03KT 2SM BR SCT250
     FM021300 12006KT P6SM SCT050
     FM021600 16008KT P6SM SCT250
     FM030300 VRB03KT 5SM BR FEW070=



000
FTUS41 KPHI 020520
TAFPHL
TAF
KPHL 020520Z 0206/0312 VRB04KT 5SM BR FEW060
      TEMPO 0209/0212 2SM BR
     FM021400 20007KT P6SM SCT050
     FM022200 14005KT P6SM SCT250
     FM030200 22005KT P6SM FEW250=



000
FTUS41 KPHI 020520
TAFRDG
TAF
KRDG 020520Z 0206/0306 VRB03KT P6SM SCT250
      TEMPO 0209/0212 3SM BR
     FM021300 27005KT P6SM FEW050=



000
FTUS41 KPHI 020520
TAFPHL
TAF
KPHL 020520Z 0206/0312 VRB04KT 5SM BR FEW060
      TEMPO 0209/0212 2SM BR
     FM021400 20007KT P6SM SCT050
     FM022200 14005KT P6SM SCT250
     FM030200 22005KT P6SM FEW250=



000
FTUS41 KPHI 020434 AAB
TAFACY
TAF AMD
KACY 020434Z 0205/0224 VRB04KT 4SM BR FEW250
      TEMPO 0205/0208 1SM BR
     FM020800 VRB03KT 2SM BR SCT250
     FM021400 12006KT P6SM SCT050=



000
FTUS41 KPHI 020300 AAA
TAFACY
TAF AMD
KACY 020300Z 0203/0224 VRB04KT 6SM BR FEW250
      TEMPO 0203/0206 4SM BR
     FM020600 VRB03KT 3SM BR SCT250
     FM021400 12006KT P6SM SCT050=



000
FTUS41 KPHI 020221 AAA
TAFMIV
TAF AMD
KMIV 020221Z 0202/0224 15004KT P6SM FEW250
      TEMPO 0202/0205 4SM BR
     FM020500 VRB02KT 3SM BR SCT250
      TEMPO 0210/0212 1SM BR
     FM021400 VRB04KT 6SM BR FEW050
     FM021600 21005KT P6SM SCT050=



000
FTUS41 KPHI 012336
TAFRDG
TAF
KRDG 012336Z 0200/0224 27004KT P6SM FEW040
     FM020600 VRB02KT 4SM BR SCT250
      TEMPO 0210/0212 2SM BR
     FM021500 26005KT P6SM SCT050=



000
FTUS41 KPHI 012336
TAFPHL
TAF
KPHL 012336Z 0200/0306 12007KT P6SM FEW060
     FM020500 VRB04KT P6SM SCT250
      TEMPO 0209/0212 5SM BR
     FM021600 21007KT P6SM SCT050
     FM030200 VRB04KT P6SM FEW250=



000
FTUS41 KPHI 012336
TAFACY
TAF
KACY 012336Z 0200/0224 11006KT 6SM HZ FEW250
     FM020900 VRB03KT 4SM BR SCT250
     FM021400 12006KT P6SM SCT050=



000
FTUS41 KPHI 012336
TAFABE
TAF
KABE 012336Z 0200/0224 12004KT P6SM SKC
     FM020600 VRB02KT 4SM BR SCT250
      TEMPO 0210/0212 2SM BR
     FM021400 24005KT P6SM SCT050=



000
FTUS41 KPHI 012336
TAFTTN
TAF
KTTN 012336Z 0200/0224 13007KT P6SM SCT050
     FM020800 VRB03KT 4SM BR SCT250
      TEMPO 0210/0212 2SM BR
     FM021400 24005KT P6SM SCT050=



000
FTUS41 KPHI 012336
TAFILG
TAF
KILG 012336Z 0200/0224 30005KT P6SM FEW050
     FM020400 VRB03KT P6SM SCT250
      TEMPO 0209/0212 5SM BR
     FM021600 21007KT P6SM SCT050=



000
FTUS41 KPHI 012336
TAFPNE
TAF
KPNE 012336Z 0200/0224 07005KT P6SM FEW060
     FM020300 VRB03KT P6SM SCT250
      TEMPO 0209/0212 5SM BR
     FM021600 21006KT P6SM SCT050=



000
FTUS41 KPHI 012336
TAFMIV
TAF
KMIV 012336Z 0200/0224 15004KT P6SM FEW250
     FM020500 VRB02KT 3SM BR SCT250
      TEMPO 0210/0212 1SM BR
     FM021400 VRB04KT 6SM BR FEW050
     FM021600 21005KT P6SM SCT050=



000
FTUS41 KPHI 012108 AAA
TAFPHL
TAF AMD
KPHL 012108Z 0121/0224 17005KT P6SM SCT060
     FM020500 VRB04KT P6SM SCT250
      TEMPO 0209/0212 5SM BR
     FM021600 21007KT P6SM SCT050=



000
FTUS41 KPHI 011735
TAFRDG
TAF
KRDG 011735Z 0118/0218 33004KT P6SM FEW050
     FM020600 VRB02KT 4SM BR SCT250
     FM021500 26005KT P6SM SCT050=



000
FTUS41 KPHI 011735
TAFTTN
TAF
KTTN 011735Z 0118/0218 36005KT P6SM SCT050
     FM012100 16003KT P6SM FEW250
     FM020800 32003KT 4SM BR SCT250
      TEMPO 0210/0212 2SM BR
     FM021400 24005KT P6SM SCT050=



000
FTUS41 KPHI 011735
TAFMIV
TAF
KMIV 011735Z 0118/0218 15005KT P6SM FEW250
     FM020500 VRB02KT 3SM BR SCT250
      TEMPO 0210/0212 1SM BR
     FM021400 VRB04KT 6SM BR SCT050=



000
FTUS41 KPHI 011735
TAFPNE
TAF
KPNE 011735Z 0118/0218 36005KT P6SM FEW050
     FM012200 16003KT P6SM FEW250
     FM020300 VRB03KT P6SM SCT250
      TEMPO 0209/0212 5SM BR
     FM021600 21007KT P6SM SCT050=



000
FTUS41 KPHI 011735
TAFPHL
TAF
KPHL 011735Z 0118/0224 17006KT P6SM SCT050
     FM020500 VRB04KT P6SM SCT250
      TEMPO 0209/0212 5SM BR
     FM021600 21007KT P6SM SCT050=



000
FTUS41 KPHI 011735
TAFABE
TAF
KABE 011735Z 0118/0218 34004KT P6SM SCT050
     FM020600 VRB02KT 4SM BR SCT250
      TEMPO 0210/0212 2SM BR
     FM021400 24005KT P6SM SCT050=



000
FTUS41 KPHI 011735
TAFACY
TAF
KACY 011735Z 0118/0218 13006KT P6SM FEW250
     FM020900 VRB03KT 5SM BR SCT250
     FM021400 11006KT P6SM SCT050=



000
FTUS41 KPHI 011735
TAFILG
TAF
KILG 011735Z 0118/0218 16004KT P6SM SCT050
     FM020400 VRB03KT P6SM SCT250
      TEMPO 0209/0212 5SM BR
     FM021600 20007KT P6SM SCT050=



000
FTUS41 KPHI 011503 AAA
TAFACY
TAF AMD
KACY 011503Z 0115/0212 02007KT P6SM FEW050
     FM011700 13006KT P6SM FEW250
     FM020900 VRB03KT 5SM BR SCT250=



000
FTUS41 KPHI 011502 AAA
TAFPHL
TAF AMD
KPHL 011502Z 0115/0218 05006KT P6SM FEW050
     FM011700 34006KT P6SM FEW050
     FM012200 15004KT P6SM FEW250
     FM020500 VRB04KT P6SM SCT250=



000
FTUS41 KPHI 011128
TAFPHL
TAF
KPHL 011128Z 0112/0218 25004KT P6SM FEW070
     FM011300 34006KT P6SM FEW050
     FM012200 15004KT P6SM FEW250
     FM020500 VRB04KT P6SM SCT250=



000
FTUS41 KPHI 011128
TAFILG
TAF
KILG 011128Z 0112/0212 VRB04KT 5SM BR SKC
     FM011300 35005KT P6SM FEW050
     FM012000 16004KT P6SM FEW250
     FM020400 VRB03KT P6SM SCT250=



000
FTUS41 KPHI 011128
TAFACY
TAF
KACY 011128Z 0112/0212 26005KT P6SM SKC
     FM011400 35005KT P6SM FEW050
     FM011700 13006KT P6SM FEW250
     FM020900 VRB03KT 5SM BR SCT250=



000
FTUS41 KPHI 011128
TAFABE
TAF
KABE 011128Z 0112/0212 VRB03KT P6SM SKC
     FM011400 34004KT P6SM FEW050
     FM020600 VRB02KT 4SM BR SCT250=



000
FTUS41 KPHI 011128
TAFRDG
TAF
KRDG 011128Z 0112/0212 VRB03KT P6SM SKC
     FM011400 33004KT P6SM FEW050
     FM020600 VRB02KT 4SM BR SCT250=



000
FTUS41 KPHI 011128
TAFMIV
TAF
KMIV 011128Z 0112/0212 VRB04KT P6SM SKC
      TEMPO 0112/0113 4SM BR
     FM011400 35005KT P6SM FEW050
     FM011800 15005KT P6SM FEW250
     FM020500 VRB02KT 3SM BR SCT250=



000
FTUS41 KPHI 011128
TAFPNE
TAF
KPNE 011128Z 0112/0212 36005KT P6SM FEW050
     FM012300 16003KT P6SM FEW250
     FM020300 VRB03KT P6SM SCT250=



000
FTUS41 KPHI 011128
TAFTTN
TAF
KTTN 011128Z 0112/0212 36004KT P6SM FEW050
      TEMPO 0112/0113 4SM BR
     FM012200 16003KT P6SM FEW250
     FM020800 32003KT 4SM BR SCT250=



000
FTUS41 KPHI 011128
TAFRDG
TAF
KRDG 011128Z 0112/0212 VRB03KT P6SM SKC
     FM011400 33004KT P6SM FEW050
     FM020600 VRB02KT 4SM BR SCT250=



000
FTUS41 KPHI 011128
TAFPHL
TAF
KPHL 011128Z 0112/0218 25004KT P6SM FEW070
     FM011300 34006KT P6SM FEW050
     FM012200 15004KT P6SM FEW250
     FM020500 VRB04KT P6SM SCT250=



000
FTUS41 KPHI 011128
TAFILG
TAF
KILG 011128Z 0112/0212 VRB04KT 5SM BR SKC
     FM011300 35005KT P6SM FEW050
     FM012000 16004KT P6SM FEW250
     FM020400 VRB03KT P6SM SCT250=



000
FTUS41 KPHI 011128
TAFPNE
TAF
KPNE 011128Z 0112/0212 36005KT P6SM FEW050
     FM012300 16003KT P6SM FEW250
     FM020300 VRB03KT P6SM SCT250=



000
FTUS41 KPHI 011128
TAFTTN
TAF
KTTN 011128Z 0112/0212 36004KT P6SM FEW050
      TEMPO 0112/0113 4SM BR
     FM012200 16003KT P6SM FEW250
     FM020800 32003KT 4SM BR SCT250=



000
FTUS41 KPHI 011128
TAFABE
TAF
KABE 011128Z 0112/0212 VRB03KT P6SM SKC
     FM011400 34004KT P6SM FEW050
     FM020600 VRB02KT 4SM BR SCT250=



000
FTUS41 KPHI 011128
TAFACY
TAF
KACY 011128Z 0112/0212 26005KT P6SM SKC
     FM011400 35005KT P6SM FEW050
     FM011700 13006KT P6SM FEW250
     FM020900 VRB03KT 5SM BR SCT250=



000
FTUS41 KPHI 011128
TAFMIV
TAF
KMIV 011128Z 0112/0212 VRB04KT P6SM SKC
      TEMPO 0112/0113 4SM BR
     FM011400 35005KT P6SM FEW050
     FM011800 15005KT P6SM FEW250
     FM020500 VRB02KT 3SM BR SCT250=



000
FTUS41 KPHI 011045 AAB
TAFMIV
TAF AMD
KMIV 011045Z 0111/0206 25004KT P6SM SKC
      TEMPO 0111/0113 1/2SM FG
     FM011300 35005KT P6SM FEW050
     FM011800 16005KT P6SM FEW250=



000
FTUS41 KPHI 011043 AAB
TAFABE
TAF AMD
KABE 011043Z 0111/0206 VRB03KT P6SM SKC
      TEMPO 0111/0113 1SM BR
     FM011300 34004KT P6SM FEW050=



000
FTUS41 KPHI 011018 AAA
TAFMIV
TAF AMD
KMIV 011018Z 0110/0206 25004KT P6SM SKC
      TEMPO 0110/0112 1SM BR
     FM011300 35005KT P6SM FEW050
     FM011800 16005KT P6SM FEW250=



000
FTUS41 KPHI 011018 AAA
TAFMIV
TAF AMD
KMIV 011018Z 0110/0206 25004KT P6SM SKC
      TEMPO 0110/0112 1SM BR
     FM011300 35005KT P6SM FEW050
     FM011800 16005KT P6SM FEW250=



000
FTUS41 KPHI 011001 AAA
TAFABE
TAF AMD
KABE 011001Z 0110/0206 VRB03KT P6SM SKC
      TEMPO 0110/0112 5SM BR
     FM011300 34004KT P6SM FEW050=



000
FTUS41 KPHI 010958 AAA
TAFTTN
TAF AMD
KTTN 010958Z 0110/0206 VRB03KT P6SM SKC
      TEMPO 0110/0112 5SM BR
     FM011300 36004KT P6SM FEW050
     FM012200 16003KT P6SM FEW250=



000
FTUS41 KPHI 010834 AAA
TAFPHL
TAF AMD
KPHL 010834Z 0109/0212 25004KT P6SM FEW070
     FM011300 34006KT P6SM FEW050
     FM012200 15004KT P6SM FEW250
     FM020500 VRB04KT P6SM SCT250=



000
FTUS41 KPHI 010520
TAFPHL
TAF
KPHL 010520Z 0106/0212 25007KT P6SM SKC
     FM011300 35006KT P6SM FEW050
     FM012200 16004KT P6SM FEW250
     FM020500 VRB04KT P6SM SCT250=



000
FTUS41 KPHI 010520
TAFABE
TAF
KABE 010520Z 0106/0206 VRB03KT P6SM SKC
     FM011300 34004KT P6SM FEW050=



000
FTUS41 KPHI 010520
TAFRDG
TAF
KRDG 010520Z 0106/0206 VRB03KT P6SM SKC
     FM011300 33004KT P6SM FEW050=



000
FTUS41 KPHI 010520
TAFACY
TAF
KACY 010520Z 0106/0206 26005KT P6SM SKC
     FM011300 35005KT P6SM FEW050
     FM011700 13006KT P6SM FEW250=



000
FTUS41 KPHI 010520
TAFTTN
TAF
KTTN 010520Z 0106/0206 VRB03KT P6SM SKC
     FM011300 36004KT P6SM FEW050
     FM012200 16003KT P6SM FEW250=



000
FTUS41 KPHI 010520
TAFPNE
TAF
KPNE 010520Z 0106/0206 26005KT P6SM SKC
     FM011300 36005KT P6SM FEW050
     FM012300 16003KT P6SM FEW250=



000
FTUS41 KPHI 010520
TAFILG
TAF
KILG 010520Z 0106/0206 24005KT P6SM SKC
     FM011300 35005KT P6SM FEW050
     FM012000 16004KT P6SM FEW250=



000
FTUS41 KPHI 010520
TAFPHL
TAF
KPHL 010520Z 0106/0212 25007KT P6SM SKC
     FM011300 35006KT P6SM FEW050
     FM012200 16004KT P6SM FEW250
     FM020500 VRB04KT P6SM SCT250=



000
FTUS41 KPHI 010520
TAFILG
TAF
KILG 010520Z 0106/0206 24005KT P6SM SKC
     FM011300 35005KT P6SM FEW050
     FM012000 16004KT P6SM FEW250=



000
FTUS41 KPHI 010520
TAFPNE
TAF
KPNE 010520Z 0106/0206 26005KT P6SM SKC
     FM011300 36005KT P6SM FEW050
     FM012300 16003KT P6SM FEW250=



000
FTUS41 KPHI 010520
TAFMIV
TAF
KMIV 010520Z 0106/0206 25004KT P6SM SKC
      TEMPO 0109/0112 4SM BR
     FM011300 35005KT P6SM FEW050
     FM011800 16005KT P6SM FEW250=



000
FTUS41 KPHI 010520
TAFABE
TAF
KABE 010520Z 0106/0206 VRB03KT P6SM SKC
     FM011300 34004KT P6SM FEW050=



000
FTUS41 KPHI 010520
TAFRDG
TAF
KRDG 010520Z 0106/0206 VRB03KT P6SM SKC
     FM011300 33004KT P6SM FEW050=



000
FTUS41 KPHI 010520
TAFMIV
TAF
KMIV 010520Z 0106/0206 25004KT P6SM SKC
      TEMPO 0109/0112 4SM BR
     FM011300 35005KT P6SM FEW050
     FM011800 16005KT P6SM FEW250=



000
FTUS41 KPHI 010520
TAFTTN
TAF
KTTN 010520Z 0106/0206 VRB03KT P6SM SKC
     FM011300 36004KT P6SM FEW050
     FM012200 16003KT P6SM FEW250=



000
FTUS41 KPHI 010520
TAFACY
TAF
KACY 010520Z 0106/0206 26005KT P6SM SKC
     FM011300 35005KT P6SM FEW050
     FM011700 13006KT P6SM FEW250=



000
FTUS41 KPHI 312335
TAFRDG
TAF
KRDG 312335Z 0100/0124 26007KT P6SM SCT050
     FM010300 00000KT P6SM SCT250
     FM011300 34003KT P6SM SKC
     FM011800 32005KT P6SM SKC=



000
FTUS41 KPHI 312335
TAFTTN
TAF
KTTN 312335Z 0100/0124 24007KT P6SM SCT050
     FM010400 VRB03KT P6SM SKC
     FM011200 36004KT P6SM SKC
     FM011800 01006KT P6SM FEW050=



000
FTUS41 KPHI 312335
TAFACY
TAF
KACY 312335Z 0100/0124 23006KT P6SM SKC
     FM011300 34003KT P6SM SKC
     FM011800 13006KT P6SM SKC=



000
FTUS41 KPHI 312335
TAFABE
TAF
KABE 312335Z 0100/0124 25009KT P6SM SCT050
     FM010300 VRB02KT P6SM SKC
     FM011300 34003KT P6SM SKC
     FM011800 01005KT P6SM SKC=



000
FTUS41 KPHI 312335
TAFMIV
TAF
KMIV 312335Z 0100/0124 VRB03KT P6SM SKC
     FM010900 00000KT 4SM BR SKC
     FM011300 35003KT P6SM SKC
     FM011800 VRB04KT P6SM FEW050=



000
FTUS41 KPHI 312335
TAFPHL
TAF
KPHL 312335Z 0100/0206 23008KT P6SM SCT100
     FM011200 34005KT P6SM SKC
     FM011900 27005KT P6SM SCT250=



000
FTUS41 KPHI 312335
TAFILG
TAF
KILG 312335Z 0100/0124 24007KT P6SM SCT050
     FM011200 34003KT P6SM SKC
     FM011900 22006KT P6SM FEW050=



000
FTUS41 KPHI 312335
TAFPNE
TAF
KPNE 312335Z 0100/0124 25006KT P6SM SCT050
     FM011200 34005KT P6SM SKC
     FM011800 03005KT P6SM FEW050=



000
FTUS41 KPHI 312104 AAB
TAFILG
TAF AMD
KILG 312104Z 3121/0118 26009G16KT P6SM SCT050 BKN150
     FM312300 24006KT P6SM SCT050
     FM011200 34003KT P6SM SKC=



000
FTUS41 KPHI 312104 AAA
TAFRDG
TAF AMD
KRDG 312104Z 3121/0118 26008G15KT P6SM VCSH SCT035 BKN200
     FM312300 25005KT P6SM SCT050
     FM010300 00000KT P6SM SCT250
     FM011300 34003KT P6SM SKC=



000
FTUS41 KPHI 312103 AAA
TAFABE
TAF AMD
KABE 312103Z 3121/0118 26008G15KT P6SM SCT040 BKN200
     FM312300 26006KT P6SM SCT050
     FM010300 VRB02KT P6SM SKC
     FM011300 34003KT P6SM SKC=



000
FTUS41 KPHI 312103 AAA
TAFABE
TAF AMD
KABE 312103Z 3121/0118 26008G15KT P6SM SCT040 BKN200
     FM312300 26006KT P6SM SCT050
     FM010300 VRB02KT P6SM SKC
     FM011300 34003KT P6SM SKC=



000
FTUS41 KPHI 312102 AAA
TAFTTN
TAF AMD
KTTN 312102Z 3121/0118 26008G15KT P6SM SCT050 BKN200
     FM312300 29007KT P6SM SCT050
     FM010400 VRB03KT P6SM SKC
     FM011200 36004KT P6SM SKC=



000
FTUS41 KPHI 312101 AAA
TAFPHL
TAF AMD
KPHL 312101Z 3121/0124 22010KT P6SM SCT050 BKN200
     FM312300 24008KT P6SM SCT050
     FM011200 34005KT P6SM SKC
     FM011900 29005KT P6SM SCT250=



000
FTUS41 KPHI 312101 AAA
TAFPHL
TAF AMD
KPHL 312101Z 3121/0124 22010KT P6SM SCT050 BKN200
     FM312300 24008KT P6SM SCT050
     FM011200 34005KT P6SM SKC
     FM011900 29005KT P6SM SCT250=



000
FTUS41 KPHI 312101 AAA
TAFPNE
TAF AMD
KPNE 312101Z 3121/0118 25008G15KT P6SM SCT050 BKN150
     FM312300 27006KT P6SM SCT050
     FM011200 34005KT P6SM SKC=



000
FTUS41 KPHI 311757 AAA
TAFILG
TAF AMD
KILG 311757Z 3118/0118 26006KT P6SM VCTS SCT050CB BKN150
     FM312000 26009G16KT P6SM VCSH SCT050 BKN150
     FM312300 24006KT P6SM SCT050
     FM011200 34003KT P6SM SKC=



000
FTUS41 KPHI 311757 AAA
TAFILG
TAF AMD
KILG 311757Z 3118/0118 26006KT P6SM VCTS SCT050CB BKN150
     FM312000 26009G16KT P6SM VCSH SCT050 BKN150
     FM312300 24006KT P6SM SCT050
     FM011200 34003KT P6SM SKC=



000
FTUS41 KPHI 311720
TAFRDG
TAF
KRDG 311720Z 3118/0118 26006KT P6SM VCSH FEW035 BKN200
     FM312000 26008G15KT P6SM VCSH SCT035 BKN200
     FM312300 25005KT P6SM SCT050
     FM010300 00000KT P6SM SCT250
     FM011300 34003KT P6SM SKC=



000
FTUS41 KPHI 311720
TAFABE
TAF
KABE 311720Z 3118/0118 23007KT P6SM VCSH FEW040 BKN200
     FM312000 27008G15KT P6SM VCSH SCT040 BKN200
     FM312300 26006KT P6SM SCT050
     FM010300 VRB02KT P6SM SKC
     FM011300 34003KT P6SM SKC=



000
FTUS41 KPHI 311720
TAFPHL
TAF
KPHL 311720Z 3118/0124 23007KT P6SM VCSH FEW050 BKN150
     FM311900 25008G16KT P6SM VCSH SCT050 BKN150
     FM312300 25008KT P6SM SCT050
     FM011200 34005KT P6SM SKC
     FM011900 29005KT P6SM SCT250=



000
FTUS41 KPHI 311720
TAFPNE
TAF
KPNE 311720Z 3118/0118 25005KT P6SM VCSH FEW050 BKN150
     FM311900 27008G15KT P6SM VCSH SCT050 BKN150
     FM312300 27006KT P6SM SCT050
     FM011200 34005KT P6SM SKC=



000
FTUS41 KPHI 311720
TAFACY
TAF
KACY 311720Z 3118/0118 25007KT P6SM BKN150
     FM311900 25010G15KT P6SM VCSH SCT050 BKN150
     FM312300 24006KT P6SM SKC
     FM011300 34003KT P6SM SKC=



000
FTUS41 KPHI 311720
TAFABE
TAF
KABE 311720Z 3118/0118 23007KT P6SM VCSH FEW040 BKN200
     FM312000 27008G15KT P6SM VCSH SCT040 BKN200
     FM312300 26006KT P6SM SCT050
     FM010300 VRB02KT P6SM SKC
     FM011300 34003KT P6SM SKC=



000
FTUS41 KPHI 311720
TAFILG
TAF
KILG 311720Z 3118/0118 26006KT P6SM VCSH FEW050 BKN150
     FM312000 26009G16KT P6SM VCSH SCT050 BKN150
     FM312300 24006KT P6SM SCT050
     FM011200 34003KT P6SM SKC=



000
FTUS41 KPHI 311720
TAFMIV
TAF
KMIV 311720Z 3118/0118 25007KT P6SM VCSH SCT050 BKN150
     FM010000 VRB03KT P6SM SKC
     FM010900 00000KT 4SM BR SKC
     FM011300 35003KT P6SM SKC=



000
FTUS41 KPHI 311720
TAFACY
TAF
KACY 311720Z 3118/0118 25007KT P6SM BKN150
     FM311900 25010G15KT P6SM VCSH SCT050 BKN150
     FM312300 24006KT P6SM SKC
     FM011300 34003KT P6SM SKC=



000
FTUS41 KPHI 311720
TAFTTN
TAF
KTTN 311720Z 3118/0118 28004KT P6SM VCSH FEW050 BKN200
     FM312000 29008G15KT P6SM VCSH SCT050 BKN200
     FM312300 29007KT P6SM SCT050
     FM010400 VRB03KT P6SM SKC
     FM011200 36004KT P6SM SKC=



000
FTUS41 KPHI 311720
TAFTTN
TAF
KTTN 311720Z 3118/0118 28004KT P6SM VCSH FEW050 BKN200
     FM312000 29008G15KT P6SM VCSH SCT050 BKN200
     FM312300 29007KT P6SM SCT050
     FM010400 VRB03KT P6SM SKC
     FM011200 36004KT P6SM SKC=



000
FTUS41 KPHI 311720
TAFPHL
TAF
KPHL 311720Z 3118/0124 23007KT P6SM VCSH FEW050 BKN150
     FM311900 25008G16KT P6SM VCSH SCT050 BKN150
     FM312300 25008KT P6SM SCT050
     FM011200 34005KT P6SM SKC
     FM011900 29005KT P6SM SCT250=



000
FTUS41 KPHI 311720
TAFPNE
TAF
KPNE 311720Z 3118/0118 25005KT P6SM VCSH FEW050 BKN150
     FM311900 27008G15KT P6SM VCSH SCT050 BKN150
     FM312300 27006KT P6SM SCT050
     FM011200 34005KT P6SM SKC=



000
FTUS41 KPHI 311720
TAFILG
TAF
KILG 311720Z 3118/0118 26006KT P6SM VCSH FEW050 BKN150
     FM312000 26009G16KT P6SM VCSH SCT050 BKN150
     FM312300 24006KT P6SM SCT050
     FM011200 34003KT P6SM SKC=



000
FTUS41 KPHI 311720
TAFRDG
TAF
KRDG 311720Z 3118/0118 26006KT P6SM VCSH FEW035 BKN200
     FM312000 26008G15KT P6SM VCSH SCT035 BKN200
     FM312300 25005KT P6SM SCT050
     FM010300 00000KT P6SM SCT250
     FM011300 34003KT P6SM SKC=



000
FTUS41 KPHI 311720
TAFMIV
TAF
KMIV 311720Z 3118/0118 25007KT P6SM VCSH SCT050 BKN150
     FM010000 VRB03KT P6SM SKC
     FM010900 00000KT 4SM BR SKC
     FM011300 35003KT P6SM SKC=



000
FTUS41 KPHI 311436 AAA
TAFPHL
TAF AMD
KPHL 311436Z 3115/0118 25009KT P6SM SCT100 BKN150
     FM311800 25008G18KT P6SM SCT050 BKN150
     FM312200 25008KT P6SM SCT050=



000
FTUS41 KPHI 311436 AAA
TAFPHL
TAF AMD
KPHL 311436Z 3115/0118 25009KT P6SM SCT100 BKN150
     FM311800 25008G18KT P6SM SCT050 BKN150
     FM312200 25008KT P6SM SCT050=



000
FTUS41 KPHI 311133
TAFACY
TAF
KACY 311133Z 3112/0112 23007KT P6SM SCT200
     FM311500 25010G15KT P6SM SCT050 BKN200
     FM312200 24010KT P6SM SCT050
     FM010000 23005KT P6SM SKC=



000
FTUS41 KPHI 311133
TAFABE
TAF
KABE 311133Z 3112/0112 26004KT P6SM FEW050 SCT200
     FM311600 27008G18KT P6SM SCT050 BKN200
     FM312200 26008KT P6SM SCT050
     FM010000 25004KT P6SM SKC=



000
FTUS41 KPHI 311133
TAFPHL
TAF
KPHL 311133Z 3112/0118 23009KT P6SM SCT090 OVC200
     FM311600 25008G18KT P6SM SCT050 BKN200
     FM312200 25008KT P6SM SCT050=



000
FTUS41 KPHI 311133
TAFILG
TAF
KILG 311133Z 3112/0112 21006KT P6SM SCT200
     FM311500 26011KT P6SM SCT050 BKN200
     FM312200 24009KT P6SM SCT050
     FM010000 23005KT P6SM SCT250=



000
FTUS41 KPHI 311133
TAFRDG
TAF
KRDG 311133Z 3112/0112 23003KT P6SM SCT200
     FM311600 27009KT P6SM SCT050 BKN200
     FM312200 25005KT P6SM SCT050
     FM010000 00000KT P6SM SCT250=



000
FTUS41 KPHI 311133
TAFMIV
TAF
KMIV 311133Z 3112/0112 22003KT P6SM SCT200
     FM311500 26009KT P6SM SCT050 BKN200
     FM312200 25006KT P6SM SCT050
     FM010000 00000KT P6SM SKC=



000
FTUS41 KPHI 311133
TAFTTN
TAF
KTTN 311133Z 3112/0112 23004KT P6SM FEW050 SCT200
     FM311600 27008G18KT P6SM SCT050 BKN200
     FM312200 27007KT P6SM SCT050
     FM010000 VRB03KT P6SM SKC
      AMD NOT SKED=



000
FTUS41 KPHI 311133
TAFPNE
TAF
KPNE 311133Z 3112/0112 24008KT P6SM FEW100
     FM311600 27008G18KT P6SM SCT050 BKN200
     FM312200 27008KT P6SM SCT050
     FM010000 26004KT P6SM SKC=



000
FTUS41 KPHI 310858 AAA
TAFPHL
TAF AMD
KPHL 310858Z 3109/0112 23009KT P6SM SCT090 OVC200
     FM311600 25008G18KT P6SM SCT050 BKN200
     FM312200 25008KT P6SM SCT050=



000
FTUS41 KPHI 310657 AAA
TAFABE
TAF AMD
KABE 310657Z 3107/0106 23004KT P6SM FEW050 SCT200
      TEMPO 3107/3111 4SM BR
     FM311600 27008G18KT P6SM SCT050 BKN200
     FM312200 26008KT P6SM SCT050
     FM010000 25004KT P6SM SKC=



000
FTUS41 KPHI 310532
TAFPHL
TAF
KPHL 310532Z 3106/0112 22009KT P6SM SCT200
     FM311600 25008G18KT P6SM SCT050 BKN200
     FM312200 25008KT P6SM SCT050=



000
FTUS41 KPHI 310532
TAFPHL
TAF
KPHL 310532Z 3106/0112 22009KT P6SM SCT200
     FM311600 25008G18KT P6SM SCT050 BKN200
     FM312200 25008KT P6SM SCT050=



000
FTUS41 KPHI 310532
TAFTTN
TAF
KTTN 310532Z 3106/0106 23004KT P6SM FEW050 SCT200
     FM311600 27008G18KT P6SM SCT050 BKN200
     FM312200 27007KT P6SM SCT050
     FM010000 VRB03KT P6SM SKC=



000
FTUS41 KPHI 310532
TAFMIV
TAF
KMIV 310532Z 3106/0106 22003KT P6SM SCT200
     FM311500 26009KT P6SM SCT050 BKN200
     FM312200 25006KT P6SM SCT050
     FM010000 00000KT P6SM SKC=



000
FTUS41 KPHI 310532
TAFACY
TAF
KACY 310532Z 3106/0106 23007KT P6SM SCT200
     FM311500 25010G15KT P6SM SCT050 BKN200
     FM312200 24010KT P6SM SCT050
     FM010000 23005KT P6SM SKC=



000
FTUS41 KPHI 310532
TAFABE
TAF
KABE 310532Z 3106/0106 23004KT P6SM FEW050 SCT200
     FM311600 27008G18KT P6SM SCT050 BKN200
     FM312200 26008KT P6SM SCT050
     FM010000 25004KT P6SM SKC=



000
FTUS41 KPHI 310532
TAFRDG
TAF
KRDG 310532Z 3106/0106 23003KT P6SM SCT200
     FM311600 27009KT P6SM SCT050 BKN200
     FM312200 25005KT P6SM SCT050
     FM010000 00000KT P6SM SCT250=



000
FTUS41 KPHI 310532
TAFPNE
TAF
KPNE 310532Z 3106/0106 24008KT P6SM FEW100
     FM311600 27008G18KT P6SM SCT050 BKN200
     FM312200 27008KT P6SM SCT050
     FM010000 26004KT P6SM SKC=



000
FTUS41 KPHI 310532
TAFILG
TAF
KILG 310532Z 3106/0106 21006KT P6SM SCT200
     FM311500 26011KT P6SM SCT050 BKN200
     FM312200 24009KT P6SM SCT050
     FM010000 23005KT P6SM SCT250=



000
FTUS41 KPHI 310532
TAFABE
TAF
KABE 310532Z 3106/0106 23004KT P6SM FEW050 SCT200
     FM311600 27008G18KT P6SM SCT050 BKN200
     FM312200 26008KT P6SM SCT050
     FM010000 25004KT P6SM SKC=



000
FTUS41 KPHI 310532
TAFRDG
TAF
KRDG 310532Z 3106/0106 23003KT P6SM SCT200
     FM311600 27009KT P6SM SCT050 BKN200
     FM312200 25005KT P6SM SCT050
     FM010000 00000KT P6SM SCT250=



000
FTUS41 KPHI 310532
TAFACY
TAF
KACY 310532Z 3106/0106 23007KT P6SM SCT200
     FM311500 25010G15KT P6SM SCT050 BKN200
     FM312200 24010KT P6SM SCT050
     FM010000 23005KT P6SM SKC=



000
FTUS41 KPHI 310532
TAFMIV
TAF
KMIV 310532Z 3106/0106 22003KT P6SM SCT200
     FM311500 26009KT P6SM SCT050 BKN200
     FM312200 25006KT P6SM SCT050
     FM010000 00000KT P6SM SKC=



000
FTUS41 KPHI 310532
TAFTTN
TAF
KTTN 310532Z 3106/0106 23004KT P6SM FEW050 SCT200
     FM311600 27008G18KT P6SM SCT050 BKN200
     FM312200 27007KT P6SM SCT050
     FM010000 VRB03KT P6SM SKC=



000
FTUS41 KPHI 310532
TAFILG
TAF
KILG 310532Z 3106/0106 21006KT P6SM SCT200
     FM311500 26011KT P6SM SCT050 BKN200
     FM312200 24009KT P6SM SCT050
     FM010000 23005KT P6SM SCT250=



000
FTUS41 KPHI 310532
TAFPNE
TAF
KPNE 310532Z 3106/0106 24008KT P6SM FEW100
     FM311600 27008G18KT P6SM SCT050 BKN200
     FM312200 27008KT P6SM SCT050
     FM010000 26004KT P6SM SKC=



000
FTUS41 KPHI 302320
TAFILG
TAF
KILG 302320Z 3100/3124 21007KT P6SM SCT200
     FM311500 26011KT P6SM SCT050 BKN200
     FM312200 23006KT P6SM SCT050=



000
FTUS41 KPHI 302320
TAFTTN
TAF
KTTN 302320Z 3100/3124 23004KT P6SM FEW050 SCT200
     FM311600 27008G18KT P6SM SCT050 BKN200
     FM312200 25005KT P6SM SCT050=



000
FTUS41 KPHI 302320
TAFRDG
TAF
KRDG 302320Z 3100/3124 23003KT P6SM SCT200
     FM311600 27009KT P6SM SCT050 BKN200
     FM312200 25005KT P6SM SCT050=



000
FTUS41 KPHI 302320
TAFPHL
TAF
KPHL 302320Z 3100/0106 22008KT P6SM SCT200
     FM311600 25008G18KT P6SM SCT050 BKN200
     FM312200 25007KT P6SM SCT050=



000
FTUS41 KPHI 302320
TAFABE
TAF
KABE 302320Z 3100/3124 25004KT P6SM FEW050 SCT200
     FM311600 27008G18KT P6SM SCT050 BKN200
     FM312200 24005KT P6SM SCT050=



000
FTUS41 KPHI 302320
TAFPNE
TAF
KPNE 302320Z 3100/3124 22010KT P6SM FEW100
     FM310200 23005KT P6SM SCT200
     FM311600 26008G18KT P6SM SCT050 BKN200
     FM312200 25005KT P6SM SCT050=



000
FTUS41 KPHI 302320
TAFACY
TAF
KACY 302320Z 3100/3124 20007KT P6SM SCT200
     FM311500 25012KT P6SM SCT050 BKN200
     FM312200 23006KT P6SM SCT050=



000
FTUS41 KPHI 302320
TAFABE
TAF
KABE 302320Z 3100/3124 25004KT P6SM FEW050 SCT200
     FM311600 27008G18KT P6SM SCT050 BKN200
     FM312200 24005KT P6SM SCT050=



000
FTUS41 KPHI 302320
TAFRDG
TAF
KRDG 302320Z 3100/3124 23003KT P6SM SCT200
     FM311600 27009KT P6SM SCT050 BKN200
     FM312200 25005KT P6SM SCT050=



000
FTUS41 KPHI 302320
TAFPHL
TAF
KPHL 302320Z 3100/0106 22008KT P6SM SCT200
     FM311600 25008G18KT P6SM SCT050 BKN200
     FM312200 25007KT P6SM SCT050=



000
FTUS41 KPHI 302320
TAFMIV
TAF
KMIV 302320Z 3100/3124 22003KT P6SM SCT200
     FM311500 26009KT P6SM SCT050 BKN200
     FM312200 25004KT P6SM SCT050=



000
FTUS41 KPHI 302320
TAFILG
TAF
KILG 302320Z 3100/3124 21007KT P6SM SCT200
     FM311500 26011KT P6SM SCT050 BKN200
     FM312200 23006KT P6SM SCT050=



000
FTUS41 KPHI 302320
TAFTTN
TAF
KTTN 302320Z 3100/3124 23004KT P6SM FEW050 SCT200
     FM311600 27008G18KT P6SM SCT050 BKN200
     FM312200 25005KT P6SM SCT050=



000
FTUS41 KPHI 302320
TAFACY
TAF
KACY 302320Z 3100/3124 20007KT P6SM SCT200
     FM311500 25012KT P6SM SCT050 BKN200
     FM312200 23006KT P6SM SCT050=



000
FTUS41 KPHI 302320
TAFPNE
TAF
KPNE 302320Z 3100/3124 22010KT P6SM FEW100
     FM310200 23005KT P6SM SCT200
     FM311600 26008G18KT P6SM SCT050 BKN200
     FM312200 25005KT P6SM SCT050=



000
FTUS41 KPHI 302320
TAFMIV
TAF
KMIV 302320Z 3100/3124 22003KT P6SM SCT200
     FM311500 26009KT P6SM SCT050 BKN200
     FM312200 25004KT P6SM SCT050=



000
FTUS41 KPHI 302223 AAB
TAFABE
TAF AMD
KABE 302223Z 3022/3118 25007KT P6SM OVC100
     FM310000 23004KT P6SM FEW050 BKN100
     FM311400 27010KT P6SM SCT050 BKN200=



000
FTUS41 KPHI 302052 AAA
TAFABE
TAF AMD
KABE 302052Z 3021/3118 25007KT P6SM SCT050 BKN250
      TEMPO 3021/3023 3SM -SHRA
     FM310000 23004KT P6SM FEW050 BKN100
     FM311400 27010KT P6SM SCT050 BKN200=



000
FTUS41 KPHI 302033 AAA
TAFPHL
TAF AMD
KPHL 302033Z 3021/3124 23010KT P6SM FEW050 BKN250
     FM310200 23007KT P6SM BKN150
     FM311400 24010KT P6SM SCT050 BKN200=



000
FTUS41 KPHI 301721
TAFILG
TAF
KILG 301721Z 3018/3118 19010KT P6SM FEW050 BKN250
     FM310200 22006KT P6SM BKN150
     FM311400 26010KT P6SM SCT050 BKN200=



000
FTUS41 KPHI 301721
TAFPNE
TAF
KPNE 301721Z 3018/3118 22008KT P6SM FEW050 BKN250
     FM310200 23005KT P6SM BKN150
     FM311400 25010KT P6SM SCT050 BKN200=



000
FTUS41 KPHI 301721
TAFPHL
TAF
KPHL 301721Z 3018/3124 22010KT P6SM FEW050 BKN250
     FM310200 23007KT P6SM BKN150
     FM311400 24010KT P6SM SCT050 BKN200=



000
FTUS41 KPHI 301721
TAFABE
TAF
KABE 301721Z 3018/3118 23007KT P6SM SCT050 BKN250
     FM310000 23004KT P6SM FEW050 BKN100
     FM311400 27010KT P6SM SCT050 BKN200=



000
FTUS41 KPHI 301721
TAFILG
TAF
KILG 301721Z 3018/3118 19010KT P6SM FEW050 BKN250
     FM310200 22006KT P6SM BKN150
     FM311400 26010KT P6SM SCT050 BKN200=



000
FTUS41 KPHI 301721
TAFMIV
TAF
KMIV 301721Z 3018/3118 23007KT P6SM FEW050 BKN250
     FM310100 22003KT P6SM BKN150
     FM311400 26009KT P6SM SCT050 BKN200=



000
FTUS41 KPHI 301721
TAFTTN
TAF
KTTN 301721Z 3018/3118 22008KT P6SM SCT050 BKN250
     FM310100 23004KT P6SM FEW050 BKN150
     FM311400 27010KT P6SM SCT050 BKN200=



000
FTUS41 KPHI 301721
TAFPNE
TAF
KPNE 301721Z 3018/3118 22008KT P6SM FEW050 BKN250
     FM310200 23005KT P6SM BKN150
     FM311400 25010KT P6SM SCT050 BKN200=



000
FTUS41 KPHI 301721
TAFTTN
TAF
KTTN 301721Z 3018/3118 22008KT P6SM SCT050 BKN250
     FM310100 23004KT P6SM FEW050 BKN150
     FM311400 27010KT P6SM SCT050 BKN200=



000
FTUS41 KPHI 301721
TAFPHL
TAF
KPHL 301721Z 3018/3124 22010KT P6SM FEW050 BKN250
     FM310200 23007KT P6SM BKN150
     FM311400 24010KT P6SM SCT050 BKN200=



000
FTUS41 KPHI 301721
TAFACY
TAF
KACY 301721Z 3018/3118 24010KT P6SM FEW050 BKN250
     FM302000 19008KT P6SM BKN250
     FM310200 22005KT P6SM BKN150
     FM311400 25010KT P6SM SCT050 BKN200=



000
FTUS41 KPHI 301721
TAFRDG
TAF
KRDG 301721Z 3018/3118 23007KT P6SM SCT050 BKN250
     FM310000 21003KT P6SM FEW050 BKN100
     FM311400 27009KT P6SM SCT050 BKN200=



000
FTUS41 KPHI 301721
TAFACY
TAF
KACY 301721Z 3018/3118 24010KT P6SM FEW050 BKN250
     FM302000 19008KT P6SM BKN250
     FM310200 22005KT P6SM BKN150
     FM311400 25010KT P6SM SCT050 BKN200=



000
FTUS41 KPHI 301458 AAA
TAFACY
TAF AMD
KACY 301458Z 3015/3112 24010KT P6SM BKN250
     FM301700 23010KT P6SM SCT050 BKN250
     FM302000 20008KT P6SM SCT050
     FM310300 23005KT P6SM BKN250=



000
FTUS41 KPHI 301425 AAA
TAFPHL
TAF AMD
KPHL 301425Z 3014/3118 24008KT P6SM FEW060 BKN250
     FM301700 23010KT P6SM SCT050 BKN250
     FM310600 24004KT P6SM BKN250=



000
FTUS41 KPHI 301130
TAFPNE
TAF
KPNE 301130Z 3012/3112 VRB03KT P6SM FEW050 SCT250
     FM301500 23010KT P6SM SCT050 BKN250
     FM310600 24004KT P6SM BKN250=



000
FTUS41 KPHI 301130
TAFPHL
TAF
KPHL 301130Z 3012/3118 20006KT P6SM FEW050 SCT250
     FM301500 23010KT P6SM SCT050 BKN250
     FM310600 24004KT P6SM BKN250=



000
FTUS41 KPHI 301130
TAFMIV
TAF
KMIV 301130Z 3012/3112 00000KT P6SM SCT250
     FM301500 22007KT P6SM SCT200
     FM310600 00000KT P6SM BKN250=



000
FTUS41 KPHI 301130
TAFABE
TAF
KABE 301130Z 3012/3112 00000KT P6SM FEW050 SCT250
     FM301500 24007KT P6SM SCT050 BKN250
     FM302200 23004KT P6SM BKN050
     FM310600 00000KT P6SM BKN250=



000
FTUS41 KPHI 301130
TAFABE
TAF
KABE 301130Z 3012/3112 00000KT P6SM FEW050 SCT250
     FM301500 24007KT P6SM SCT050 BKN250
     FM302200 23004KT P6SM BKN050
     FM310600 00000KT P6SM BKN250=



000
FTUS41 KPHI 301130
TAFTTN
TAF
KTTN 301130Z 3012/3112 VRB03KT P6SM FEW050 SCT250
     FM301500 24008KT P6SM SCT050 BKN250
     FM310600 VRB03KT P6SM BKN250=



000
FTUS41 KPHI 301130
TAFTTN
TAF
KTTN 301130Z 3012/3112 VRB03KT P6SM FEW050 SCT250
     FM301500 24008KT P6SM SCT050 BKN250
     FM310600 VRB03KT P6SM BKN250=



000
FTUS41 KPHI 301130
TAFPNE
TAF
KPNE 301130Z 3012/3112 VRB03KT P6SM FEW050 SCT250
     FM301500 23010KT P6SM SCT050 BKN250
     FM310600 24004KT P6SM BKN250=



000
FTUS41 KPHI 301130
TAFACY
TAF
KACY 301130Z 3012/3112 21005KT P6SM FEW050 SCT250
     FM301500 23008KT P6SM SCT050 BKN250
     FM310600 23005KT P6SM BKN250=



000
FTUS41 KPHI 301130
TAFPHL
TAF
KPHL 301130Z 3012/3118 20006KT P6SM FEW050 SCT250
     FM301500 23010KT P6SM SCT050 BKN250
     FM310600 24004KT P6SM BKN250=



000
FTUS41 KPHI 301130
TAFILG
TAF
KILG 301130Z 3012/3112 19005KT P6SM FEW050 SCT250
     FM301500 23008KT P6SM SCT050 BKN250
     FM310600 22004KT P6SM BKN250=



000
FTUS41 KPHI 301130
TAFACY
TAF
KACY 301130Z 3012/3112 21005KT P6SM FEW050 SCT250
     FM301500 23008KT P6SM SCT050 BKN250
     FM310600 23005KT P6SM BKN250=



000
FTUS41 KPHI 301130
TAFRDG
TAF
KRDG 301130Z 3012/3112 00000KT P6SM FEW050 SCT250
     FM301500 24007KT P6SM SCT050 BKN250
     FM302200 23004KT P6SM BKN050
     FM310600 00000KT P6SM BKN250=



000
FTUS41 KPHI 301130
TAFILG
TAF
KILG 301130Z 3012/3112 19005KT P6SM FEW050 SCT250
     FM301500 23008KT P6SM SCT050 BKN250
     FM310600 22004KT P6SM BKN250=



000
FTUS41 KPHI 301130
TAFRDG
TAF
KRDG 301130Z 3012/3112 00000KT P6SM FEW050 SCT250
     FM301500 24007KT P6SM SCT050 BKN250
     FM302200 23004KT P6SM BKN050
     FM310600 00000KT P6SM BKN250=



000
FTUS41 KPHI 301130
TAFMIV
TAF
KMIV 301130Z 3012/3112 00000KT P6SM SCT250
     FM301500 22007KT P6SM SCT200
     FM310600 00000KT P6SM BKN250=



    US Dept of Commerce
    National Oceanic and Atmospheric Administration
    National Weather Service
    1325 East West Highway
    Silver Spring, MD 20910
    Page Author: NWS Internet Services Team
Disclaimer
Information Quality
Credits
Glossary
Privacy Policy
Freedom of Information Act (FOIA)
About Us
Career Opportunities